Pagrindinis puslapis
METAR-TAF:

METAR-TAF

Oro uostai :

Såtenäs, Švedija

platuma: 58-26N, ilguma: 012-42E, Aukštis: 54 m

Dabartinis oras

Ataskaita buvo paskelbta 48 minutes, ne 10:50 UTC
Vėjas 6 kt iš Pietų/Pietvakarių
Temperatūra 3°C
Drėgmė 100%
Slėgis 1026 hPa
Matomumas: 0800 m
rūkas

METAR: ESIB 231050Z AUTO 21006KT 0800 0650// R01/1300N R19/1000N FG OVC002/// 03/03 Q1026

Laikas: 12:38 (11:38 UTC)


TAF: trūkstamas

Orai ataskaitas ir orų prognozės (METAR, TAF).

turimą stotys yra geltonos ir raudonos taškus žemėlapyje.

Perkelti pele per norėdami pamatyti stoties vardą.

Tada spustelėkite, norėdami matyti oro stebėjimo ir prognozės.

Norėdami pakeisti žemėlapį: spustelėkite ant žalios mygtukų su juodo kryžiaus žemyn,; žalią mygtuką su brūkšneliu, jei norite nutolinti; arba žalių rodyklių gretimoms žemėlapius.


METAR-TAF: